createdAt,value
2023-01-26T00:02:21.322Z,-0.03
2023-01-26T00:04:51.067Z,0.02
2023-01-26T00:07:20.857Z,0.15
2023-01-26T00:09:50.616Z,0.22
2023-01-26T00:12:20.412Z,0.31
2023-01-26T00:14:50.472Z,0.33
2023-01-26T00:17:23.143Z,0.13
2023-01-26T00:19:59.210Z,0.04
2023-01-26T00:22:29.018Z,-0.08
2023-01-26T00:24:58.799Z,0.16
2023-01-26T00:27:28.645Z,-0.07
2023-01-26T00:29:58.755Z,0.13
2023-01-26T00:32:28.497Z,0.06
2023-01-26T00:34:58.288Z,0.08
2023-01-26T00:37:28.115Z,-0.04
2023-01-26T00:39:58.122Z,-0.23
2023-01-26T00:42:28.171Z,-0.04
2023-01-26T00:44:59.276Z,-0.04
2023-01-26T00:47:29.062Z,-0.13
2023-01-26T00:49:59.502Z,0.06
2023-01-26T00:52:31.121Z,0.06
2023-01-26T00:55:00.914Z,0.01
2023-01-26T00:57:30.682Z,0.15
2023-01-26T01:00:00.855Z,0.10
2023-01-26T01:02:30.603Z,0.12
2023-01-26T01:05:00.408Z,0.12
2023-01-26T01:07:30.176Z,0.00
2023-01-26T01:10:00.414Z,0.07
2023-01-26T01:12:30.162Z,0.20
2023-01-26T01:15:00.250Z,-0.28
2023-01-26T01:17:30.026Z,-0.03
2023-01-26T01:19:59.799Z,0.09
2023-01-26T01:22:29.493Z,0.11
2023-01-26T01:24:59.228Z,0.46
2023-01-26T01:27:29.473Z,0.31
2023-01-26T01:29:59.188Z,0.22
2023-01-26T01:32:28.964Z,0.33
2023-01-26T01:34:59.208Z,0.31
2023-01-26T01:37:30.927Z,0.34
2023-01-26T01:40:00.802Z,0.51
2023-01-26T01:42:30.634Z,0.33
2023-01-26T01:45:29.425Z,0.31
2023-01-26T01:48:02.272Z,0.32
2023-01-26T01:50:35.411Z,0.18
2023-01-26T01:53:06.843Z,0.09
2023-01-26T01:55:37.354Z,0.11
2023-01-26T01:58:09.314Z,0.37
2023-01-26T02:00:39.123Z,0.40
2023-01-26T02:03:15.140Z,0.40
2023-01-26T02:06:17.226Z,0.19
2023-01-26T02:08:50.528Z,0.39
2023-01-26T02:11:35.080Z,0.19
2023-01-26T02:14:10.004Z,0.42
2023-01-26T02:16:42.361Z,0.22
2023-01-26T02:19:15.211Z,0.20
2023-01-26T02:21:48.337Z,0.03
2023-01-26T02:24:29.878Z,-0.05
2023-01-26T02:26:59.895Z,0.16
2023-01-26T02:29:30.864Z,0.17
2023-01-26T02:32:00.653Z,0.18
2023-01-26T02:34:30.524Z,0.18
2023-01-26T02:37:02.394Z,0.25
2023-01-26T02:39:50.459Z,0.26
2023-01-26T02:42:38.052Z,0.41
2023-01-26T02:45:12.691Z,0.35
2023-01-26T02:47:44.915Z,0.22
2023-01-26T02:50:16.133Z,0.22
2023-01-26T02:52:46.202Z,0.43
2023-01-26T02:55:22.916Z,0.33
2023-01-26T02:57:55.128Z,0.31
2023-01-26T03:00:31.003Z,0.42
2023-01-26T03:03:02.571Z,0.56
2023-01-26T03:05:32.717Z,0.39
2023-01-26T03:08:04.203Z,0.55
2023-01-26T03:10:36.011Z,0.56
2023-01-26T03:13:05.953Z,0.57
2023-01-26T03:15:37.538Z,0.38
2023-01-26T03:18:29.483Z,0.38
2023-01-26T03:21:19.300Z,0.60
2023-01-26T03:24:07.234Z,0.58
2023-01-26T03:26:55.095Z,0.54
2023-01-26T03:31:56.195Z,0.64
2023-01-26T03:34:26.208Z,0.54
2023-01-26T03:36:56.202Z,0.74
2023-01-26T03:39:43.929Z,1.01
2023-01-26T03:42:31.688Z,0.58
2023-01-26T03:45:19.902Z,0.64
2023-01-26T03:48:08.251Z,0.53
2023-01-26T03:50:55.634Z,0.54
2023-01-26T03:53:43.254Z,0.77
2023-01-26T03:56:20.783Z,0.75
2023-01-26T03:58:54.572Z,0.74
2023-01-26T04:01:29.178Z,1.00
2023-01-26T04:04:18.131Z,0.89
2023-01-26T04:07:08.605Z,1.00
2023-01-26T04:09:40.165Z,0.98
2023-01-26T04:12:14.067Z,0.95
2023-01-26T04:15:05.787Z,1.04
2023-01-26T04:17:53.888Z,1.07
2023-01-26T04:20:41.064Z,0.95
2023-01-26T04:23:19.137Z,0.82
2023-01-26T04:25:50.453Z,0.88
2023-01-26T04:28:20.759Z,1.06
2023-01-26T04:30:51.716Z,0.99
2023-01-26T04:33:21.887Z,1.31
2023-01-26T04:35:51.398Z,1.11
2023-01-26T04:38:22.134Z,1.16
2023-01-26T04:40:55.272Z,1.20
2023-01-26T04:43:25.564Z,1.17
2023-01-26T04:46:04.234Z,1.24
2023-01-26T04:48:34.253Z,1.14
2023-01-26T04:51:13.005Z,1.17
2023-01-26T04:53:43.326Z,1.17
2023-01-26T04:56:28.783Z,1.17
2023-01-26T04:59:05.367Z,1.16
2023-01-26T05:01:35.916Z,1.49
2023-01-26T05:04:09.599Z,0.92
2023-01-26T05:06:42.164Z,1.48
2023-01-26T05:09:12.351Z,1.48
2023-01-26T05:11:44.218Z,1.37
2023-01-26T05:14:30.744Z,1.03
2023-01-26T05:17:04.891Z,1.31
2023-01-26T05:19:51.665Z,1.31
2023-01-26T05:22:41.810Z,1.30
2023-01-26T05:25:24.684Z,1.10
2023-01-26T05:27:56.227Z,1.29
2023-01-26T05:30:26.548Z,1.33
2023-01-26T05:33:04.970Z,1.23
2023-01-26T05:35:35.704Z,1.24
2023-01-26T05:38:08.846Z,1.08
2023-01-26T05:40:38.733Z,1.08
2023-01-26T05:43:11.079Z,1.27
2023-01-26T05:45:43.019Z,1.29
2023-01-26T05:48:13.866Z,1.21
2023-01-26T05:50:43.861Z,1.35
2023-01-26T05:53:15.297Z,1.36
2023-01-26T05:55:45.427Z,1.40
2023-01-26T05:58:16.749Z,1.24
2023-01-26T06:00:46.586Z,1.24
2023-01-26T06:03:18.140Z,1.28
2023-01-26T06:05:54.442Z,1.21
2023-01-26T06:08:25.929Z,1.24
2023-01-26T06:11:02.696Z,1.29
2023-01-26T06:13:49.346Z,1.43
2023-01-26T06:16:21.008Z,1.43
2023-01-26T06:18:51.474Z,1.57
2023-01-26T06:21:21.959Z,1.51
2023-01-26T06:23:53.721Z,1.59
2023-01-26T06:26:24.500Z,1.41
2023-01-26T06:28:55.842Z,1.36
2023-01-26T06:31:28.729Z,1.57
2023-01-26T06:33:59.818Z,1.63
2023-01-26T06:36:29.463Z,1.54
2023-01-26T06:39:00.931Z,1.64
2023-01-26T06:41:31.183Z,1.49
2023-01-26T06:44:01.003Z,1.40
2023-01-26T06:46:31.602Z,1.43
2023-01-26T06:49:03.688Z,1.23
2023-01-26T06:51:40.763Z,1.36
2023-01-26T06:54:15.075Z,1.46
2023-01-26T06:57:04.586Z,1.34
2023-01-26T07:02:23.865Z,1.49
2023-01-26T07:04:53.996Z,1.57
2023-01-26T07:07:24.038Z,1.57
2023-01-26T07:09:54.132Z,1.55
2023-01-26T07:12:24.042Z,1.57
2023-01-26T07:14:54.107Z,1.38
2023-01-26T07:17:23.958Z,1.46
2023-01-26T07:19:53.820Z,1.50
2023-01-26T07:22:23.293Z,1.58
2023-01-26T07:24:53.918Z,1.55
2023-01-26T07:27:23.705Z,1.49
2023-01-26T07:29:53.477Z,1.50
2023-01-26T07:32:23.385Z,1.69
2023-01-26T07:34:53.482Z,1.59
2023-01-26T07:37:23.212Z,1.63
2023-01-26T07:39:52.984Z,1.65
2023-01-26T07:42:22.783Z,1.64
2023-01-26T07:44:57.278Z,1.56
2023-01-26T07:47:27.226Z,1.64
2023-01-26T07:49:57.084Z,1.70
2023-01-26T07:52:26.840Z,1.94
2023-01-26T07:54:57.025Z,1.70
2023-01-26T07:57:26.884Z,1.64
2023-01-26T07:59:57.050Z,1.71
2023-01-26T08:02:27.042Z,1.62
2023-01-26T08:04:57.082Z,1.74
2023-01-26T08:07:27.401Z,1.80
2023-01-26T08:09:58.974Z,1.89
2023-01-26T08:12:29.084Z,1.72
2023-01-26T08:14:59.182Z,1.65
2023-01-26T08:17:34.482Z,1.69
2023-01-26T08:20:04.477Z,1.85
2023-01-26T08:22:34.635Z,1.68
2023-01-26T08:25:04.813Z,1.65
2023-01-26T08:27:34.883Z,1.67
2023-01-26T08:30:06.709Z,1.73
2023-01-26T08:32:36.480Z,1.75
2023-01-26T08:35:08.470Z,1.75
2023-01-26T08:37:38.923Z,1.63
2023-01-26T08:40:09.551Z,1.78
2023-01-26T08:42:39.783Z,1.76
2023-01-26T08:45:09.800Z,1.87
2023-01-26T08:47:39.948Z,1.91
2023-01-26T08:50:11.258Z,1.96
2023-01-26T08:52:41.453Z,2.12
2023-01-26T08:55:11.358Z,2.08
2023-01-26T08:57:41.703Z,2.00
2023-01-26T09:00:14.199Z,2.27
2023-01-26T09:02:44.349Z,2.02
2023-01-26T09:05:13.923Z,2.25
2023-01-26T09:07:44.562Z,2.33
2023-01-26T09:10:14.719Z,2.35
2023-01-26T09:12:45.062Z,2.41
2023-01-26T09:15:14.535Z,2.23
2023-01-26T09:17:44.385Z,2.36
2023-01-26T09:20:14.070Z,2.41
2023-01-26T09:22:44.107Z,2.43
2023-01-26T09:25:13.942Z,2.20
2023-01-26T09:27:44.558Z,2.52
2023-01-26T09:30:14.746Z,2.41
2023-01-26T09:32:45.210Z,2.47
2023-01-26T09:35:15.416Z,2.30
2023-01-26T09:37:45.773Z,2.42
2023-01-26T09:40:19.810Z,2.47
2023-01-26T09:42:58.519Z,2.65
2023-01-26T09:45:34.125Z,2.56
2023-01-26T09:48:29.704Z,2.60
2023-01-26T09:51:02.537Z,2.65
2023-01-26T09:53:47.367Z,2.46
2023-01-26T09:56:21.016Z,2.55
2023-01-26T09:58:57.303Z,2.54
2023-01-26T10:01:27.697Z,2.63
2023-01-26T10:04:30.047Z,2.57
2023-01-26T10:07:01.837Z,2.82
2023-01-26T10:09:53.577Z,2.75
2023-01-26T10:12:35.322Z,2.74
2023-01-26T10:15:21.880Z,3.08
2023-01-26T10:17:54.859Z,2.99
2023-01-26T10:20:36.149Z,2.87
2023-01-26T10:23:17.231Z,2.88
2023-01-26T10:25:51.655Z,2.78
2023-01-26T10:28:35.138Z,2.93
2023-01-26T10:31:08.351Z,2.79
2023-01-26T10:33:39.122Z,2.88
2023-01-26T10:36:11.240Z,3.08
2023-01-26T10:38:43.101Z,3.37
2023-01-26T10:41:24.885Z,3.53
2023-01-26T10:44:00.826Z,3.57
2023-01-26T10:46:34.125Z,3.67
2023-01-26T10:49:13.073Z,3.81
2023-01-26T10:51:46.349Z,3.50
2023-01-26T10:54:22.508Z,3.90
2023-01-26T10:57:00.417Z,4.12
2023-01-26T10:59:43.573Z,4.04
2023-01-26T11:02:19.317Z,4.14
2023-01-26T11:05:11.918Z,4.20
2023-01-26T11:07:44.271Z,4.56
2023-01-26T11:10:33.294Z,4.26
2023-01-26T11:13:19.250Z,4.45
2023-01-26T11:16:03.367Z,4.42
2023-01-26T11:19:00.562Z,4.66
2023-01-26T11:21:33.708Z,4.95
2023-01-26T11:24:12.711Z,4.60
2023-01-26T11:27:07.951Z,4.97
2023-01-26T11:29:57.131Z,5.27
2023-01-26T11:32:48.378Z,5.40
2023-01-26T11:35:35.430Z,5.40
2023-01-26T11:38:09.562Z,5.59
2023-01-26T11:41:00.276Z,5.69
2023-01-26T11:43:38.931Z,5.73
2023-01-26T11:46:28.116Z,6.06
2023-01-26T11:49:20.212Z,6.15
2023-01-26T11:52:01.451Z,6.42
2023-01-26T11:55:04.034Z,6.69
2023-01-26T11:57:45.669Z,6.77
2023-01-26T12:00:29.414Z,6.72
2023-01-26T12:02:56.951Z,6.85
2023-01-26T12:05:30.243Z,6.99
2023-01-26T12:08:02.923Z,7.03
2023-01-26T12:10:35.414Z,7.28
2023-01-26T12:13:16.943Z,7.25
2023-01-26T12:15:52.265Z,7.47
2023-01-26T12:18:42.161Z,7.34
2023-01-26T12:21:06.144Z,7.51
2023-01-26T12:23:39.242Z,7.53
2023-01-26T12:26:18.226Z,7.35
2023-01-26T12:29:18.130Z,7.72
2023-01-26T12:31:50.722Z,8.20
2023-01-26T12:34:23.554Z,7.85
2023-01-26T12:37:18.625Z,8.03
2023-01-26T12:40:21.094Z,7.86
2023-01-26T12:43:02.391Z,7.92
2023-01-26T12:45:35.247Z,7.69
2023-01-26T12:48:23.175Z,7.74
2023-01-26T12:50:55.999Z,8.20
2023-01-26T12:53:32.408Z,8.11
2023-01-26T12:56:14.020Z,8.05
2023-01-26T12:58:46.694Z,8.41
2023-01-26T13:01:22.145Z,8.31
2023-01-26T13:04:00.968Z,8.63
2023-01-26T13:06:31.285Z,8.45
2023-01-26T13:09:22.367Z,8.34
2023-01-26T13:11:59.881Z,8.53
2023-01-26T13:14:38.431Z,8.44
2023-01-26T13:17:20.498Z,8.42
2023-01-26T13:19:53.325Z,8.35
2023-01-26T13:22:30.588Z,8.74
2023-01-26T13:25:19.509Z,9.02
2023-01-26T13:27:52.361Z,9.70
2023-01-26T13:30:30.833Z,9.66
2023-01-26T13:33:24.504Z,8.77
2023-01-26T13:35:56.466Z,8.44
2023-01-26T13:38:31.723Z,8.41
2023-01-26T13:41:02.864Z,8.48
2023-01-26T13:43:44.716Z,8.48
2023-01-26T13:46:33.709Z,8.91
2023-01-26T13:49:03.237Z,9.23
2023-01-26T13:51:35.918Z,9.00
2023-01-26T13:54:17.859Z,8.87
2023-01-26T13:57:07.532Z,8.86
2023-01-26T13:59:51.503Z,8.82
2023-01-26T14:02:35.864Z,8.65
2023-01-26T14:05:08.533Z,8.41
2023-01-26T14:07:43.573Z,8.75
2023-01-26T14:10:23.270Z,8.49
2023-01-26T14:12:57.213Z,8.64
2023-01-26T14:15:29.932Z,8.97
2023-01-26T14:18:05.275Z,8.77
2023-01-26T14:20:37.947Z,8.92
2023-01-26T14:23:19.109Z,8.75
2023-01-26T14:25:51.947Z,8.89
2023-01-26T14:28:24.138Z,8.80
2023-01-26T14:30:59.898Z,8.67
2023-01-26T14:33:30.878Z,8.42
2023-01-26T14:36:02.895Z,8.41
2023-01-26T14:38:44.570Z,8.65
2023-01-26T14:41:34.360Z,8.75
2023-01-26T14:44:07.339Z,8.56
2023-01-26T14:46:40.513Z,8.67
2023-01-26T14:49:15.862Z,8.67
2023-01-26T14:51:47.768Z,8.46
2023-01-26T14:54:23.636Z,8.57
2023-01-26T14:56:53.484Z,8.51
2023-01-26T14:59:26.547Z,8.30
2023-01-26T15:02:25.596Z,8.43
2023-01-26T15:04:58.350Z,8.53
2023-01-26T15:07:45.844Z,8.56
2023-01-26T15:10:41.155Z,8.53
2023-01-26T15:13:19.793Z,8.46
2023-01-26T15:16:03.890Z,8.25
2023-01-26T15:18:34.848Z,8.28
2023-01-26T15:21:23.768Z,8.18
2023-01-26T15:23:56.287Z,8.18
2023-01-26T15:26:32.003Z,8.47
2023-01-26T15:29:07.634Z,8.20
2023-01-26T15:31:39.989Z,7.87
2023-01-26T15:34:36.728Z,7.83
2023-01-26T15:37:25.979Z,8.24
2023-01-26T15:43:59.582Z,7.64
2023-01-26T15:46:29.261Z,7.64
2023-01-26T15:48:59.151Z,7.75
2023-01-26T15:51:29.095Z,7.85
2023-01-26T15:53:58.900Z,7.85
2023-01-26T15:56:28.662Z,7.95
2023-01-26T15:58:58.963Z,8.10
2023-01-26T16:01:30.326Z,8.10
2023-01-26T16:04:00.156Z,8.05
2023-01-26T16:06:32.773Z,8.07
2023-01-26T16:09:02.556Z,7.93
2023-01-26T16:11:35.491Z,7.96
2023-01-26T16:14:08.261Z,7.96
2023-01-26T16:16:38.225Z,7.97
2023-01-26T16:19:08.865Z,7.89
2023-01-26T16:21:41.123Z,7.86
2023-01-26T16:24:12.171Z,7.84
2023-01-26T16:26:41.960Z,7.79
2023-01-26T16:29:11.487Z,7.68
2023-01-26T16:31:41.369Z,7.83
2023-01-26T16:34:11.731Z,7.64
2023-01-26T16:36:41.487Z,7.75
2023-01-26T16:39:11.355Z,7.70
2023-01-26T16:41:41.105Z,7.75
2023-01-26T16:44:17.374Z,7.75
2023-01-26T16:46:47.137Z,7.50
2023-01-26T16:49:17.432Z,7.30
2023-01-26T16:51:47.442Z,7.61
2023-01-26T16:54:17.181Z,7.40
2023-01-26T16:56:46.994Z,7.55
2023-01-26T16:59:17.056Z,7.46
2023-01-26T17:01:46.733Z,7.57
2023-01-26T17:04:16.319Z,7.54
2023-01-26T17:06:46.149Z,7.64
2023-01-26T17:09:16.212Z,7.30
2023-01-26T17:11:46.088Z,7.17
2023-01-26T17:14:16.405Z,7.14
2023-01-26T17:16:46.314Z,7.09
2023-01-26T17:19:16.505Z,7.07
2023-01-26T17:21:46.336Z,7.26
2023-01-26T17:24:15.958Z,7.25
2023-01-26T17:26:45.846Z,7.17
2023-01-26T17:29:15.658Z,6.96
2023-01-26T17:31:45.594Z,7.25
2023-01-26T17:34:16.461Z,7.05
2023-01-26T17:36:46.364Z,7.14
2023-01-26T17:39:17.879Z,7.28
2023-01-26T17:41:47.719Z,7.25
2023-01-26T17:44:17.560Z,7.18
2023-01-26T17:46:47.498Z,7.22
2023-01-26T17:49:17.428Z,7.10
2023-01-26T17:51:47.697Z,7.18
2023-01-26T17:54:18.066Z,7.43
2023-01-26T17:56:47.831Z,7.13
2023-01-26T17:59:17.696Z,7.03
2023-01-26T18:01:47.555Z,7.25
2023-01-26T18:04:17.356Z,7.17
2023-01-26T18:06:46.890Z,7.21
2023-01-26T18:09:16.705Z,7.26
2023-01-26T18:11:46.497Z,7.19
2023-01-26T18:14:16.137Z,7.46
2023-01-26T18:16:45.979Z,7.01
2023-01-26T18:19:15.773Z,7.21
2023-01-26T18:21:45.524Z,7.19
2023-01-26T18:24:15.030Z,7.18
2023-01-26T18:26:45.082Z,7.01
2023-01-26T18:29:16.755Z,7.04
2023-01-26T18:31:47.969Z,7.19
2023-01-26T18:34:17.850Z,7.10
2023-01-26T18:36:47.643Z,7.25
2023-01-26T18:39:17.524Z,7.08
2023-01-26T18:41:47.450Z,6.95
2023-01-26T18:44:18.339Z,7.12
2023-01-26T18:46:48.084Z,7.15
2023-01-26T18:49:18.409Z,7.03
2023-01-26T18:51:52.150Z,7.18
2023-01-26T18:54:21.975Z,7.04
2023-01-26T18:56:51.788Z,7.20
2023-01-26T18:59:21.545Z,7.23
2023-01-26T19:01:51.436Z,7.25
2023-01-26T19:04:21.225Z,7.07
2023-01-26T19:06:51.141Z,7.07
2023-01-26T19:09:21.344Z,7.06
2023-01-26T19:11:52.889Z,7.24
2023-01-26T19:14:23.198Z,7.33
2023-01-26T19:16:53.109Z,7.36
2023-01-26T19:19:23.135Z,7.17
2023-01-26T19:21:53.044Z,7.17
2023-01-26T19:24:23.054Z,6.90
2023-01-26T19:26:52.920Z,6.98
2023-01-26T19:29:22.985Z,7.11
2023-01-26T19:31:52.828Z,7.17
2023-01-26T19:34:23.043Z,7.19
2023-01-26T19:36:52.882Z,6.92
2023-01-26T19:39:22.709Z,6.74
2023-01-26T19:41:52.486Z,6.71
2023-01-26T19:44:22.195Z,7.00
2023-01-26T19:46:53.595Z,7.20
2023-01-26T19:49:23.435Z,7.03
2023-01-26T19:51:53.895Z,6.95
2023-01-26T19:54:23.396Z,7.03
2023-01-26T19:56:53.165Z,6.97
2023-01-26T19:59:22.923Z,7.09
2023-01-26T20:01:52.671Z,7.02
2023-01-26T20:04:22.200Z,6.87
2023-01-26T20:06:52.020Z,6.63
2023-01-26T20:09:21.799Z,6.87
2023-01-26T20:11:52.545Z,6.63
2023-01-26T20:14:22.659Z,6.78
2023-01-26T20:16:52.357Z,6.73
2023-01-26T20:19:22.132Z,6.88
2023-01-26T20:21:51.908Z,6.64
2023-01-26T20:24:22.224Z,6.73
2023-01-26T20:26:53.093Z,6.93
2023-01-26T20:29:23.181Z,6.72
2023-01-26T20:31:53.261Z,6.72
2023-01-26T20:34:23.197Z,6.84
2023-01-26T20:36:54.648Z,6.56
2023-01-26T20:39:25.228Z,6.71
2023-01-26T20:41:55.815Z,6.61
2023-01-26T20:44:25.511Z,6.52
2023-01-26T20:46:55.571Z,6.58
2023-01-26T20:49:25.468Z,6.73
2023-01-26T20:51:55.231Z,6.86
2023-01-26T20:54:25.247Z,6.80
2023-01-26T20:56:55.034Z,6.55
2023-01-26T20:59:24.809Z,6.73
2023-01-26T21:01:54.331Z,6.76
2023-01-26T21:04:24.113Z,6.53
2023-01-26T21:06:55.256Z,6.84
2023-01-26T21:09:25.308Z,6.88
2023-01-26T21:11:55.084Z,7.03
2023-01-26T21:14:24.552Z,6.82
2023-01-26T21:16:55.708Z,6.83
2023-01-26T21:19:25.637Z,6.83
2023-01-26T21:21:55.444Z,6.72
2023-01-26T21:24:25.231Z,6.72
2023-01-26T21:26:54.968Z,6.68
2023-01-26T21:29:24.800Z,6.73
2023-01-26T21:31:54.707Z,6.63
2023-01-26T21:34:24.385Z,6.75
2023-01-26T21:36:54.204Z,6.59
2023-01-26T21:39:23.982Z,6.66
2023-01-26T21:41:56.722Z,6.67
2023-01-26T21:44:28.315Z,6.77
2023-01-26T21:47:00.558Z,6.77
2023-01-26T21:49:31.308Z,6.69
2023-01-26T21:52:18.684Z,6.67
2023-01-26T21:54:48.751Z,6.67
2023-01-26T21:57:36.264Z,6.43
2023-01-26T22:00:07.432Z,6.48
2023-01-26T22:02:37.266Z,6.69
2023-01-26T22:05:08.798Z,6.75
2023-01-26T22:07:38.576Z,6.39
2023-01-26T22:10:11.151Z,6.51
2023-01-26T22:12:41.109Z,6.52
2023-01-26T22:15:11.382Z,6.38
2023-01-26T22:17:41.442Z,6.09
2023-01-26T22:20:13.340Z,6.21
2023-01-26T22:22:43.447Z,6.19
2023-01-26T22:25:13.381Z,6.29
2023-01-26T22:27:43.310Z,6.20
2023-01-26T22:30:15.880Z,6.18
2023-01-26T22:32:45.747Z,6.18
2023-01-26T22:35:16.578Z,6.11
2023-01-26T22:37:46.421Z,6.34
2023-01-26T22:40:16.456Z,6.11
2023-01-26T22:42:46.210Z,6.18
2023-01-26T22:45:15.849Z,6.24
2023-01-26T22:47:46.308Z,6.05
2023-01-26T22:50:18.268Z,6.18
2023-01-26T22:52:48.196Z,6.14
2023-01-26T22:55:17.964Z,5.87
2023-01-26T22:57:47.736Z,5.73
2023-01-26T23:00:17.784Z,5.92
2023-01-26T23:02:47.715Z,5.78
2023-01-26T23:05:17.930Z,5.83
2023-01-26T23:07:47.669Z,5.82
2023-01-26T23:10:17.383Z,5.93
2023-01-26T23:12:47.127Z,5.89
2023-01-26T23:15:16.993Z,5.91
2023-01-26T23:17:48.046Z,5.82
2023-01-26T23:20:19.758Z,5.73
2023-01-26T23:22:49.745Z,5.85
2023-01-26T23:25:36.850Z,5.59
2023-01-26T23:28:08.402Z,5.73
2023-01-26T23:30:38.224Z,5.59
2023-01-26T23:33:08.030Z,5.80
2023-01-26T23:35:38.747Z,5.91
2023-01-26T23:38:09.523Z,5.48
2023-01-26T23:40:39.834Z,5.68
2023-01-26T23:43:16.503Z,5.67
2023-01-26T23:45:43.282Z,5.54
2023-01-26T23:48:13.352Z,5.65
2023-01-26T23:50:43.794Z,5.57
2023-01-26T23:53:13.831Z,5.47
2023-01-26T23:55:44.267Z,5.49
2023-01-26T23:58:14.014Z,5.44
